createdAt,value
2017-01-28T00:00:54.635Z,929.06
2017-01-28T00:02:08.980Z,929.01
2017-01-28T00:03:23.360Z,929.09
2017-01-28T00:04:37.107Z,929.17
2017-01-28T00:05:51.457Z,929.2
2017-01-28T00:07:05.159Z,929.18
2017-01-28T00:08:18.888Z,929.1
2017-01-28T00:09:33.259Z,929.06
2017-01-28T00:10:46.975Z,929.07
2017-01-28T00:12:01.317Z,929.03
2017-01-28T00:13:15.670Z,929.01
2017-01-28T00:14:30.045Z,928.98
2017-01-28T00:15:44.432Z,928.98
2017-01-28T00:16:58.846Z,928.94
2017-01-28T00:18:13.208Z,928.91
2017-01-28T00:19:26.942Z,928.87
2017-01-28T00:20:41.322Z,928.86
2017-01-28T00:21:55.687Z,928.95
2017-01-28T00:23:10.143Z,929.04
2017-01-28T00:24:23.868Z,929.05
2017-01-28T00:25:38.246Z,929.07
2017-01-28T00:26:51.957Z,929.06
2017-01-28T00:28:06.370Z,929.11
2017-01-28T00:29:20.723Z,929.11
2017-01-28T00:30:35.124Z,929.26
2017-01-28T00:31:49.490Z,929.27
2017-01-28T00:33:03.262Z,929.33
2017-01-28T00:34:17.664Z,929.34
2017-01-28T00:35:31.379Z,929.46
2017-01-28T00:36:45.078Z,929.5
2017-01-28T00:37:58.140Z,929.53
2017-01-28T00:39:11.890Z,929.57
2017-01-28T00:40:25.656Z,929.58
2017-01-28T00:41:40.017Z,929.56
2017-01-28T00:42:54.347Z,929.52
2017-01-28T00:44:08.670Z,929.58
2017-01-28T00:45:23.048Z,929.59
2017-01-28T00:46:37.446Z,929.6
2017-01-28T00:47:51.860Z,929.64
2017-01-28T00:49:05.602Z,929.68
2017-01-28T00:50:19.954Z,929.74
2017-01-28T00:51:33.672Z,929.78
2017-01-28T00:52:47.421Z,929.83
2017-01-28T00:54:01.775Z,929.9
2017-01-28T00:55:16.154Z,929.83
2017-01-28T00:56:30.514Z,929.83
2017-01-28T00:57:44.845Z,929.8
2017-01-28T00:58:59.255Z,929.8
2017-01-28T01:00:12.967Z,929.81
2017-01-28T01:01:27.319Z,929.84
2017-01-28T01:02:41.028Z,929.84
2017-01-28T01:03:54.788Z,929.83
2017-01-28T01:05:09.238Z,929.86
2017-01-28T01:06:22.946Z,929.88
2017-01-28T01:07:36.644Z,929.88
2017-01-28T01:08:50.995Z,929.85
2017-01-28T01:10:04.714Z,929.87
2017-01-28T01:11:18.398Z,929.83
2017-01-28T01:12:32.834Z,929.91
2017-01-28T01:13:46.522Z,929.94
2017-01-28T01:15:00.869Z,929.98
2017-01-28T01:16:15.226Z,930
2017-01-28T01:17:29.607Z,930
2017-01-28T01:18:43.992Z,929.99
2017-01-28T01:19:58.354Z,929.99
2017-01-28T01:21:12.707Z,929.94
2017-01-28T01:22:27.070Z,929.92
2017-01-28T01:23:41.456Z,929.92
2017-01-28T01:24:55.817Z,929.89
2017-01-28T01:26:10.203Z,929.87
2017-01-28T01:27:24.595Z,929.87
2017-01-28T01:28:38.955Z,929.89
2017-01-28T01:29:53.316Z,929.89
2017-01-28T01:31:06.430Z,929.89
2017-01-28T01:32:20.123Z,929.87
2017-01-28T01:33:34.493Z,929.82
2017-01-28T01:34:48.830Z,929.84
2017-01-28T01:36:03.181Z,929.88
2017-01-28T01:37:17.534Z,929.91
2017-01-28T01:38:31.251Z,929.89
2017-01-28T01:39:45.613Z,929.97
2017-01-28T01:40:59.986Z,929.93
2017-01-28T01:42:13.924Z,929.95
2017-01-28T01:43:28.303Z,929.93
2017-01-28T01:44:42.658Z,929.92
2017-01-28T01:45:57.201Z,929.94
2017-01-28T01:47:11.620Z,929.95
2017-01-28T01:48:25.991Z,929.91
2017-01-28T01:49:40.338Z,929.94
2017-01-28T01:50:54.668Z,929.82
2017-01-28T01:52:09.064Z,929.88
2017-01-28T01:53:23.435Z,929.83
2017-01-28T01:54:36.510Z,929.8
2017-01-28T01:55:50.273Z,929.79
2017-01-28T01:57:04.673Z,929.78
2017-01-28T01:58:18.417Z,929.8
2017-01-28T01:59:32.779Z,929.73
2017-01-28T02:00:46.509Z,929.82
2017-01-28T02:02:00.860Z,929.8
2017-01-28T02:03:15.250Z,929.79
2017-01-28T02:04:29.562Z,929.75
2017-01-28T02:05:43.894Z,929.73
2017-01-28T02:06:57.623Z,929.7
2017-01-28T02:08:12.037Z,929.7
2017-01-28T02:09:26.393Z,929.72
2017-01-28T02:10:40.082Z,929.68
2017-01-28T02:11:54.447Z,929.69
2017-01-28T02:13:08.798Z,929.66
2017-01-28T02:14:22.512Z,929.64
2017-01-28T02:15:36.930Z,929.62
2017-01-28T02:16:50.886Z,929.54
2017-01-28T02:18:05.208Z,929.54
2017-01-28T02:19:18.889Z,929.46
2017-01-28T02:20:33.281Z,929.41
2017-01-28T02:21:47.665Z,929.34
2017-01-28T02:23:02.033Z,929.34
2017-01-28T02:24:15.733Z,929.32
2017-01-28T02:25:30.068Z,929.35
2017-01-28T02:26:44.393Z,929.32
2017-01-28T02:27:58.742Z,929.38
2017-01-28T02:29:12.501Z,929.34
2017-01-28T02:30:26.203Z,929.4
2017-01-28T02:31:39.908Z,929.39
2017-01-28T02:32:54.264Z,929.37
2017-01-28T02:34:08.641Z,929.44
2017-01-28T02:35:22.388Z,929.38
2017-01-28T02:36:36.791Z,929.36
2017-01-28T02:37:51.201Z,929.31
2017-01-28T02:39:05.549Z,929.3
2017-01-28T02:40:19.874Z,929.29
2017-01-28T02:41:34.246Z,929.32
2017-01-28T02:42:48.641Z,929.35
2017-01-28T02:44:03.041Z,929.38
2017-01-28T02:45:16.750Z,929.34
2017-01-28T02:46:31.131Z,929.41
2017-01-28T02:47:44.862Z,929.42
2017-01-28T02:48:59.289Z,929.4
2017-01-28T02:50:13.651Z,929.4
2017-01-28T02:51:27.980Z,929.35
2017-01-28T02:52:41.679Z,929.28
2017-01-28T02:53:56.004Z,929.26
2017-01-28T02:55:10.326Z,929.2
2017-01-28T02:56:24.677Z,929.11
2017-01-28T02:57:39.055Z,929.08
2017-01-28T02:58:53.406Z,929.07
2017-01-28T03:00:07.787Z,929.03
2017-01-28T03:01:22.121Z,929.07
2017-01-28T03:02:36.480Z,928.99
2017-01-28T03:03:50.855Z,929.01
2017-01-28T03:05:05.237Z,929
2017-01-28T03:06:19.604Z,928.95
2017-01-28T03:07:33.971Z,928.93
2017-01-28T03:08:47.687Z,928.92
2017-01-28T03:10:02.061Z,928.91
2017-01-28T03:11:15.296Z,928.93
2017-01-28T03:12:29.682Z,928.95
2017-01-28T03:13:44.019Z,928.99
2017-01-28T03:14:58.404Z,928.94
2017-01-28T03:16:12.124Z,928.91
2017-01-28T03:17:26.509Z,928.88
2017-01-28T03:18:40.867Z,928.9
2017-01-28T03:19:55.199Z,928.88
2017-01-28T03:21:09.520Z,928.83
2017-01-28T03:22:23.208Z,928.86
2017-01-28T03:23:37.827Z,928.77
2017-01-28T03:24:52.209Z,928.8
2017-01-28T03:26:06.548Z,928.73
2017-01-28T03:27:20.298Z,928.77
2017-01-28T03:28:41.385Z,928.71
2017-01-28T03:29:55.144Z,928.66
2017-01-28T03:31:09.481Z,928.63
2017-01-28T03:32:23.889Z,928.59
2017-01-28T03:33:38.259Z,928.55
2017-01-28T03:34:51.951Z,928.55
2017-01-28T03:36:05.656Z,928.54
2017-01-28T03:37:19.325Z,928.48
2017-01-28T03:38:33.695Z,928.53
2017-01-28T03:39:46.766Z,928.49
2017-01-28T03:41:01.131Z,928.52
2017-01-28T03:42:15.481Z,928.55
2017-01-28T03:43:29.814Z,928.42
2017-01-28T03:44:44.193Z,928.44
2017-01-28T03:45:58.554Z,928.45
2017-01-28T03:47:12.303Z,928.52
2017-01-28T03:48:26.708Z,928.5
2017-01-28T03:49:39.803Z,928.54
2017-01-28T03:50:53.541Z,928.53
2017-01-28T03:52:07.895Z,928.51
2017-01-28T03:53:22.239Z,928.51
2017-01-28T03:54:36.610Z,928.47
2017-01-28T03:55:50.954Z,928.51
2017-01-28T03:57:05.342Z,928.51
2017-01-28T03:58:19.088Z,928.5
2017-01-28T03:59:33.463Z,928.51
2017-01-28T04:00:47.815Z,928.54
2017-01-28T04:02:01.503Z,928.47
2017-01-28T04:03:14.571Z,928.45
2017-01-28T04:04:29.037Z,928.46
2017-01-28T04:05:42.751Z,928.4
2017-01-28T04:06:57.148Z,928.41
2017-01-28T04:08:11.519Z,928.37
2017-01-28T04:09:25.210Z,928.34
2017-01-28T04:10:39.560Z,928.41
2017-01-28T04:11:53.980Z,928.44
2017-01-28T04:13:08.491Z,928.46
2017-01-28T04:14:22.881Z,928.41
2017-01-28T04:15:37.262Z,928.38
2017-01-28T04:16:51.605Z,928.38
2017-01-28T04:18:05.937Z,928.37
2017-01-28T04:19:19.669Z,928.37
2017-01-28T04:20:34.049Z,928.4
2017-01-28T04:21:47.769Z,928.45
2017-01-28T04:23:00.907Z,928.37
2017-01-28T04:24:15.257Z,928.38
2017-01-28T04:25:29.626Z,928.45
2017-01-28T04:26:43.987Z,928.39
2017-01-28T04:27:58.369Z,928.38
2017-01-28T04:29:12.277Z,928.34
2017-01-28T04:30:25.971Z,928.45
2017-01-28T04:31:40.348Z,928.31
2017-01-28T04:32:54.709Z,928.38
2017-01-28T04:34:09.092Z,928.38
2017-01-28T04:35:22.157Z,928.4
2017-01-28T04:36:36.539Z,928.39
2017-01-28T04:37:50.260Z,928.36
2017-01-28T04:39:04.655Z,928.36
2017-01-28T04:40:19.001Z,928.31
2017-01-28T04:41:33.377Z,928.28
2017-01-28T04:42:47.698Z,928.27
2017-01-28T04:44:02.077Z,928.28
2017-01-28T04:45:15.788Z,928.21
2017-01-28T04:46:30.162Z,928.26
2017-01-28T04:47:44.596Z,928.25
2017-01-28T04:48:58.341Z,928.25
2017-01-28T04:50:12.034Z,928.25
2017-01-28T04:51:26.435Z,928.22
2017-01-28T04:52:40.857Z,928.25
2017-01-28T04:53:55.252Z,928.1
2017-01-28T04:55:09.598Z,928.13
2017-01-28T04:56:22.668Z,928.11
2017-01-28T04:57:37.036Z,928.16
2017-01-28T04:58:50.707Z,928.14
2017-01-28T05:00:05.039Z,928.13
2017-01-28T05:01:18.772Z,928.12
2017-01-28T05:02:33.145Z,928.11
2017-01-28T05:03:47.530Z,928.14
2017-01-28T05:05:01.872Z,928.07
2017-01-28T05:06:16.228Z,928.06
2017-01-28T05:07:30.661Z,928.06
2017-01-28T05:08:45.072Z,927.91
2017-01-28T05:09:59.469Z,927.95
2017-01-28T05:11:12.563Z,928.03
2017-01-28T05:12:26.250Z,927.98
2017-01-28T05:13:40.628Z,927.95
2017-01-28T05:14:54.990Z,927.92
2017-01-28T05:16:09.327Z,927.89
2017-01-28T05:17:23.065Z,927.91
2017-01-28T05:18:37.461Z,927.88
2017-01-28T05:19:51.819Z,927.86
2017-01-28T05:21:06.187Z,927.82
2017-01-28T05:22:19.914Z,927.85
2017-01-28T05:23:34.286Z,927.73
2017-01-28T05:24:48.690Z,927.8
2017-01-28T05:26:02.395Z,927.7
2017-01-28T05:27:16.131Z,927.82
2017-01-28T05:28:30.474Z,927.8
2017-01-28T05:29:44.811Z,927.85
2017-01-28T05:30:59.188Z,927.68
2017-01-28T05:32:12.924Z,927.81
2017-01-28T05:33:26.644Z,927.72
2017-01-28T05:34:41.010Z,927.77
2017-01-28T05:35:55.346Z,927.8
2017-01-28T05:37:09.068Z,927.79
2017-01-28T05:38:22.819Z,927.65
2017-01-28T05:39:37.191Z,927.68
2017-01-28T05:40:50.916Z,927.64
2017-01-28T05:42:05.290Z,927.65
2017-01-28T05:43:18.389Z,927.69
2017-01-28T05:44:32.782Z,927.62
2017-01-28T05:45:47.138Z,927.47
2017-01-28T05:47:00.830Z,927.64
2017-01-28T05:48:15.183Z,927.65
2017-01-28T05:49:29.534Z,927.63
2017-01-28T05:50:43.888Z,927.55
2017-01-28T05:51:57.594Z,927.61
2017-01-28T05:53:11.956Z,927.65
2017-01-28T05:54:26.373Z,927.62
2017-01-28T05:55:40.718Z,927.59
2017-01-28T05:56:55.098Z,927.61
2017-01-28T05:58:09.447Z,927.65
2017-01-28T05:59:23.203Z,927.6
2017-01-28T06:00:37.570Z,927.71
2017-01-28T06:01:51.326Z,927.69
2017-01-28T06:03:05.711Z,927.68
2017-01-28T06:04:20.063Z,927.65
2017-01-28T06:05:34.467Z,927.63
2017-01-28T06:06:48.824Z,927.64
2017-01-28T06:08:03.163Z,927.64
2017-01-28T06:09:16.261Z,927.61
2017-01-28T06:10:30.676Z,927.57
2017-01-28T06:11:45.035Z,927.61
2017-01-28T06:12:58.777Z,927.58
2017-01-28T06:14:13.157Z,927.56
2017-01-28T06:15:27.538Z,927.57
2017-01-28T06:16:41.859Z,927.57
2017-01-28T06:17:55.558Z,927.54
2017-01-28T06:19:09.918Z,927.47
2017-01-28T06:20:24.299Z,927.52
2017-01-28T06:21:38.614Z,927.53
2017-01-28T06:22:53.286Z,927.56
2017-01-28T06:24:07.663Z,927.56
2017-01-28T06:25:22.037Z,927.56
2017-01-28T06:26:36.392Z,927.52
2017-01-28T06:27:50.158Z,927.54
2017-01-28T06:29:04.507Z,927.61
2017-01-28T06:30:18.244Z,927.52
2017-01-28T06:31:32.609Z,927.5
2017-01-28T06:32:46.970Z,927.47
2017-01-28T06:34:01.339Z,927.49
2017-01-28T06:35:14.474Z,927.54
2017-01-28T06:36:28.900Z,927.53
2017-01-28T06:37:42.615Z,927.55
2017-01-28T06:38:57.029Z,927.56
2017-01-28T06:40:11.370Z,927.5
2017-01-28T06:41:25.745Z,927.51
2017-01-28T06:42:40.105Z,927.41
2017-01-28T06:43:54.455Z,927.52
2017-01-28T06:45:08.854Z,927.5
2017-01-28T06:46:22.602Z,927.53
2017-01-28T06:47:36.972Z,927.49
2017-01-28T06:48:51.316Z,927.48
2017-01-28T06:50:05.027Z,927.43
2017-01-28T06:51:19.412Z,927.49
2017-01-28T06:52:33.757Z,927.46
2017-01-28T06:53:48.132Z,927.48
2017-01-28T06:55:02.458Z,927.52
2017-01-28T06:56:15.546Z,927.51
2017-01-28T06:57:29.917Z,927.49
2017-01-28T06:58:44.258Z,927.5
2017-01-28T06:59:58.620Z,927.48
2017-01-28T07:01:12.345Z,927.51
2017-01-28T07:02:26.744Z,927.49
2017-01-28T07:03:41.200Z,927.47
2017-01-28T07:04:55.539Z,927.54
2017-01-28T07:06:09.876Z,927.5
2017-01-28T07:07:23.542Z,927.52
2017-01-28T07:08:37.897Z,927.54
2017-01-28T07:09:52.298Z,927.54
2017-01-28T07:11:06.042Z,927.58
2017-01-28T07:12:20.372Z,927.57
2017-01-28T07:13:34.693Z,927.6
2017-01-28T07:14:49.075Z,927.55
2017-01-28T07:16:03.490Z,927.59
2017-01-28T07:17:17.877Z,927.61
2017-01-28T07:18:32.223Z,927.61
2017-01-28T07:19:46.568Z,927.61
2017-01-28T07:21:00.926Z,927.61
2017-01-28T07:22:15.295Z,927.59
2017-01-28T07:23:29.670Z,927.59
2017-01-28T07:24:44.026Z,927.62
2017-01-28T07:25:57.734Z,927.57
2017-01-28T07:27:12.096Z,927.57
2017-01-28T07:28:26.490Z,927.56
2017-01-28T07:29:40.859Z,927.6
2017-01-28T07:30:55.247Z,927.57
2017-01-28T07:32:09.689Z,927.61
2017-01-28T07:33:23.411Z,927.63
2017-01-28T07:34:37.155Z,927.67
2017-01-28T07:35:51.528Z,927.64
2017-01-28T07:37:05.853Z,927.65
2017-01-28T07:38:20.227Z,927.68
2017-01-28T07:39:34.591Z,927.68
2017-01-28T07:40:48.951Z,927.67
2017-01-28T07:42:02.659Z,927.67
2017-01-28T07:43:16.382Z,927.69
2017-01-28T07:44:30.784Z,927.69
2017-01-28T07:45:45.151Z,927.63
2017-01-28T07:46:58.911Z,927.65
2017-01-28T07:48:12.660Z,927.67
2017-01-28T07:49:26.353Z,927.66
2017-01-28T07:50:40.735Z,927.66
2017-01-28T07:51:55.091Z,927.65
2017-01-28T07:53:08.792Z,927.69
2017-01-28T07:54:22.545Z,927.69
2017-01-28T07:55:36.954Z,927.65
2017-01-28T07:56:51.285Z,927.69
2017-01-28T07:58:05.542Z,927.69
2017-01-28T07:59:19.901Z,927.7
2017-01-28T08:00:34.282Z,927.7
2017-01-28T08:01:48.638Z,927.75
2017-01-28T08:03:03.004Z,927.76
2017-01-28T08:04:16.712Z,927.77
2017-01-28T08:05:30.475Z,927.79
2017-01-28T08:06:44.855Z,927.81
2017-01-28T08:07:57.927Z,927.76
2017-01-28T08:09:12.276Z,927.77
2017-01-28T08:10:26.639Z,927.83
2017-01-28T08:11:41.076Z,927.85
2017-01-28T08:12:55.503Z,927.82
2017-01-28T08:14:09.863Z,927.84
2017-01-28T08:15:24.234Z,927.86
2017-01-28T08:16:37.994Z,927.88
2017-01-28T08:17:52.358Z,927.89
2017-01-28T08:19:06.738Z,927.89
2017-01-28T08:20:20.454Z,927.85
2017-01-28T08:21:34.817Z,927.93
2017-01-28T08:22:49.223Z,927.93
2017-01-28T08:24:03.603Z,927.89
2017-01-28T08:25:16.706Z,927.95
2017-01-28T08:26:30.420Z,927.96
2017-01-28T08:27:44.817Z,927.93
2017-01-28T08:28:59.186Z,927.95
2017-01-28T08:30:12.926Z,927.93
2017-01-28T08:31:26.662Z,927.97
2017-01-28T08:32:41.111Z,927.98
2017-01-28T08:33:54.813Z,928.02
2017-01-28T08:35:08.523Z,928.04
2017-01-28T08:36:22.260Z,928.06
2017-01-28T08:37:36.620Z,928.08
2017-01-28T08:38:50.971Z,928.12
2017-01-28T08:40:05.360Z,928.13
2017-01-28T08:41:19.116Z,928.16
2017-01-28T08:42:33.496Z,928.19
2017-01-28T08:43:47.880Z,928.24
2017-01-28T08:45:01.633Z,928.21
2017-01-28T08:46:15.374Z,928.18
2017-01-28T08:47:29.717Z,928.19
2017-01-28T08:48:44.109Z,928.2
2017-01-28T08:49:58.445Z,928.22
2017-01-28T08:51:12.779Z,928.26
2017-01-28T08:52:26.480Z,928.2
2017-01-28T08:53:40.900Z,928.21
2017-01-28T08:54:55.256Z,928.21
2017-01-28T08:56:08.983Z,928.23
2017-01-28T08:57:22.740Z,928.22
2017-01-28T08:58:37.137Z,928.28
2017-01-28T08:59:51.499Z,928.22
2017-01-28T09:01:05.227Z,928.26
2017-01-28T09:02:18.949Z,928.27
2017-01-28T09:03:32.683Z,928.26
2017-01-28T09:04:47.059Z,928.27
2017-01-28T09:06:00.750Z,928.27
2017-01-28T09:07:14.467Z,928.28
2017-01-28T09:08:29.060Z,928.3
2017-01-28T09:09:43.470Z,928.26
2017-01-28T09:10:57.860Z,928.3
2017-01-28T09:12:12.237Z,928.37
2017-01-28T09:13:26.566Z,928.38
2017-01-28T09:14:40.269Z,928.34
2017-01-28T09:15:54.841Z,928.38
2017-01-28T09:17:09.182Z,928.39
2017-01-28T09:18:23.575Z,928.43
2017-01-28T09:19:37.309Z,928.44
2017-01-28T09:20:51.666Z,928.46
2017-01-28T09:22:06.018Z,928.46
2017-01-28T09:23:20.384Z,928.5
2017-01-28T09:24:34.734Z,928.55
2017-01-28T09:25:48.436Z,928.5
2017-01-28T09:27:02.780Z,928.49
2017-01-28T09:28:15.895Z,928.52
2017-01-28T09:29:30.298Z,928.54
2017-01-28T09:30:44.635Z,928.63
2017-01-28T09:31:58.997Z,928.6
2017-01-28T09:33:12.082Z,928.62
2017-01-28T09:34:26.477Z,928.64
2017-01-28T09:35:40.870Z,928.68
2017-01-28T09:36:55.241Z,928.65
2017-01-28T09:38:09.660Z,928.65
2017-01-28T09:39:24.062Z,928.66
2017-01-28T09:40:38.453Z,928.7
2017-01-28T09:41:52.830Z,928.68
2017-01-28T09:43:07.184Z,928.71
2017-01-28T09:44:20.945Z,928.7
2017-01-28T09:45:35.339Z,928.77
2017-01-28T09:46:49.705Z,928.76
2017-01-28T09:48:04.077Z,928.78
2017-01-28T09:49:17.831Z,928.77
2017-01-28T09:50:32.211Z,928.74
2017-01-28T09:51:46.560Z,928.73
2017-01-28T09:53:00.944Z,928.75
2017-01-28T09:54:14.690Z,928.79
2017-01-28T09:55:29.114Z,928.82
2017-01-28T09:56:43.537Z,928.8
2017-01-28T09:57:57.981Z,928.88
2017-01-28T09:59:12.379Z,928.87
2017-01-28T10:00:26.761Z,928.9
2017-01-28T10:01:41.123Z,928.92
2017-01-28T10:02:55.528Z,928.96
2017-01-28T10:04:09.892Z,928.96
2017-01-28T10:05:24.257Z,928.98
2017-01-28T10:06:38.640Z,928.96
2017-01-28T10:07:53.064Z,928.94
2017-01-28T10:09:07.414Z,928.97
2017-01-28T10:10:21.791Z,928.99
2017-01-28T10:11:36.156Z,929.01
2017-01-28T10:12:50.535Z,928.96
2017-01-28T10:14:04.977Z,928.97
2017-01-28T10:15:18.079Z,929.01
2017-01-28T10:16:31.858Z,928.98
2017-01-28T10:17:45.565Z,928.97
2017-01-28T10:18:59.955Z,929
2017-01-28T10:20:14.330Z,928.96
2017-01-28T10:21:28.723Z,929.07
2017-01-28T10:22:43.116Z,929.06
2017-01-28T10:23:57.492Z,929.04
2017-01-28T10:25:11.913Z,929.09
2017-01-28T10:26:24.363Z,929.1
2017-01-28T10:27:38.719Z,929.08
2017-01-28T10:28:52.570Z,929.1
2017-01-28T10:30:06.970Z,929.1
2017-01-28T10:31:21.366Z,929.1
2017-01-28T10:32:35.753Z,929.08
2017-01-28T10:33:50.145Z,929.09
2017-01-28T10:35:03.896Z,929.08
2017-01-28T10:36:16.983Z,929.08
2017-01-28T10:37:30.716Z,929.14
2017-01-28T10:38:45.056Z,929.12
2017-01-28T10:39:59.397Z,929.11
2017-01-28T10:41:13.769Z,929.16
2017-01-28T10:42:28.102Z,929.16
2017-01-28T10:43:42.486Z,929.18
2017-01-28T10:44:56.886Z,929.17
2017-01-28T10:46:11.282Z,929.22
2017-01-28T10:47:25.833Z,929.2
2017-01-28T10:48:40.246Z,929.23
2017-01-28T10:49:54.011Z,929.25
2017-01-28T10:51:07.080Z,929.23
2017-01-28T10:52:21.446Z,929.27
2017-01-28T10:53:35.844Z,929.28
2017-01-28T10:54:50.203Z,929.27
2017-01-28T10:56:04.601Z,929.3
2017-01-28T10:57:17.707Z,929.3
2017-01-28T10:58:32.103Z,929.28
2017-01-28T10:59:46.482Z,929.29
2017-01-28T11:01:00.893Z,929.33
2017-01-28T11:02:14.565Z,929.29
2017-01-28T11:03:28.945Z,929.29
2017-01-28T11:04:43.341Z,929.3
2017-01-28T11:05:57.716Z,929.34
2017-01-28T11:07:12.073Z,929.37
2017-01-28T11:08:25.803Z,929.33
2017-01-28T11:09:40.190Z,929.35
2017-01-28T11:10:54.602Z,929.34
2017-01-28T11:12:08.958Z,929.37
2017-01-28T11:13:22.729Z,929.39
2017-01-28T11:14:36.447Z,929.45
2017-01-28T11:15:50.810Z,929.44
2017-01-28T11:17:05.199Z,929.46
2017-01-28T11:18:19.588Z,929.48
2017-01-28T11:19:33.924Z,929.52
2017-01-28T11:20:48.305Z,929.57
2017-01-28T11:22:02.039Z,929.53
2017-01-28T11:23:15.112Z,929.57
2017-01-28T11:24:29.446Z,929.53
2017-01-28T11:25:43.806Z,929.55
2017-01-28T11:26:58.183Z,929.55
2017-01-28T11:28:12.589Z,929.58
2017-01-28T11:29:26.356Z,929.59
2017-01-28T11:30:40.717Z,929.63
2017-01-28T11:31:55.089Z,929.61
2017-01-28T11:33:09.793Z,929.61
2017-01-28T11:34:23.552Z,929.65
2017-01-28T11:35:37.942Z,929.66
2017-01-28T11:36:52.314Z,929.65
2017-01-28T11:38:06.707Z,929.63
2017-01-28T11:39:21.093Z,929.63
2017-01-28T11:40:35.481Z,929.64
2017-01-28T11:41:49.190Z,929.63
2017-01-28T11:43:03.597Z,929.62
2017-01-28T11:44:17.927Z,929.66
2017-01-28T11:45:32.330Z,929.71
2017-01-28T11:46:46.714Z,929.69
2017-01-28T11:48:01.081Z,929.69
2017-01-28T11:49:15.457Z,929.71
2017-01-28T11:50:29.875Z,929.68
2017-01-28T11:51:44.630Z,929.69
2017-01-28T11:52:59.032Z,929.66
2017-01-28T11:54:13.409Z,929.66
2017-01-28T11:55:27.854Z,929.63
2017-01-28T11:56:42.216Z,929.65
2017-01-28T11:57:56.602Z,929.67
2017-01-28T11:59:10.975Z,929.66
2017-01-28T12:00:24.699Z,929.68
2017-01-28T12:01:39.088Z,929.67
2017-01-28T12:02:53.506Z,929.68
2017-01-28T12:04:07.248Z,929.67
2017-01-28T12:05:21.673Z,929.62
2017-01-28T12:06:37.305Z,929.62
2017-01-28T12:07:54.480Z,929.62
2017-01-28T12:09:08.264Z,929.6
2017-01-28T12:10:21.976Z,929.62
2017-01-28T12:11:35.760Z,929.65
2017-01-28T12:12:50.144Z,929.6
2017-01-28T12:14:04.495Z,929.65
2017-01-28T12:15:18.245Z,929.69
2017-01-28T12:16:32.617Z,929.62
2017-01-28T12:17:47.021Z,929.69
2017-01-28T12:19:01.421Z,929.65
2017-01-28T12:20:15.808Z,929.69
2017-01-28T12:21:30.176Z,929.7
2017-01-28T12:22:44.544Z,929.78
2017-01-28T12:23:58.962Z,929.76
2017-01-28T12:25:12.675Z,929.73
2017-01-28T12:26:27.040Z,929.69
2017-01-28T12:27:41.437Z,929.7
2017-01-28T12:28:55.843Z,929.7
2017-01-28T12:30:10.256Z,929.72
2017-01-28T12:31:25.229Z,929.73
2017-01-28T12:32:39.579Z,929.75
2017-01-28T12:33:53.974Z,929.81
2017-01-28T12:35:08.419Z,929.77
2017-01-28T12:36:22.164Z,929.77
2017-01-28T12:37:36.586Z,929.77
2017-01-28T12:38:51.190Z,929.78
2017-01-28T12:40:05.616Z,929.79
2017-01-28T12:41:20.021Z,929.75
2017-01-28T12:42:34.471Z,929.66
2017-01-28T12:43:48.867Z,929.66
2017-01-28T12:45:02.629Z,929.67
2017-01-28T12:46:17.022Z,929.72
2017-01-28T12:47:31.401Z,929.74
2017-01-28T12:48:45.148Z,929.74
2017-01-28T12:49:59.546Z,929.74
2017-01-28T12:51:13.289Z,929.69
2017-01-28T12:52:27.709Z,929.76
2017-01-28T12:53:42.110Z,929.77
2017-01-28T12:54:56.484Z,929.79
2017-01-28T12:56:10.916Z,929.79
2017-01-28T12:57:25.300Z,929.79
2017-01-28T12:58:39.703Z,929.74
2017-01-28T12:59:54.111Z,929.77
2017-01-28T13:01:08.510Z,929.71
2017-01-28T13:02:22.911Z,929.77
2017-01-28T13:03:37.287Z,929.81
2017-01-28T13:04:51.700Z,929.82
2017-01-28T13:06:06.137Z,929.79
2017-01-28T13:07:19.875Z,929.81
2017-01-28T13:08:34.241Z,929.79
2017-01-28T13:09:48.630Z,929.74
2017-01-28T13:11:03.044Z,929.77
2017-01-28T13:12:17.479Z,929.82
2017-01-28T13:13:31.834Z,929.78
2017-01-28T13:14:46.239Z,929.81
2017-01-28T13:16:00.600Z,929.78
2017-01-28T13:17:14.347Z,929.84
2017-01-28T13:18:28.709Z,929.84
2017-01-28T13:19:43.324Z,929.77
2017-01-28T13:20:57.723Z,929.82
2017-01-28T13:22:12.108Z,929.83
2017-01-28T13:23:26.485Z,929.82
2017-01-28T13:24:40.867Z,929.77
2017-01-28T13:25:54.565Z,929.74
2017-01-28T13:27:09.004Z,929.7
2017-01-28T13:28:22.108Z,929.72
2017-01-28T13:29:36.494Z,929.67
2017-01-28T13:30:50.258Z,929.72
2017-01-28T13:32:04.608Z,929.73
2017-01-28T13:33:19.020Z,929.68
2017-01-28T13:34:32.757Z,929.76
2017-01-28T13:35:47.107Z,929.75
2017-01-28T13:37:01.503Z,929.71
2017-01-28T13:38:15.297Z,929.71
2017-01-28T13:39:29.033Z,929.66
2017-01-28T13:40:43.410Z,929.65
2017-01-28T13:41:57.132Z,929.74
2017-01-28T13:43:11.495Z,929.67
2017-01-28T13:44:25.919Z,929.68
2017-01-28T13:45:40.339Z,929.69
2017-01-28T13:46:54.728Z,929.68
2017-01-28T13:48:08.508Z,929.64
2017-01-28T13:49:22.894Z,929.68
2017-01-28T13:50:37.286Z,929.65
2017-01-28T13:51:51.687Z,929.62
2017-01-28T13:53:06.081Z,929.58
2017-01-28T13:54:20.488Z,929.61
2017-01-28T13:55:34.871Z,929.55
2017-01-28T13:56:49.318Z,929.59
2017-01-28T13:58:03.708Z,929.59
2017-01-28T13:59:18.074Z,929.64
2017-01-28T14:00:32.458Z,929.61
2017-01-28T14:01:46.255Z,929.58
2017-01-28T14:03:00.659Z,929.54
2017-01-28T14:04:15.028Z,929.52
2017-01-28T14:05:29.472Z,929.56
2017-01-28T14:06:43.875Z,929.5
2017-01-28T14:07:58.303Z,929.52
2017-01-28T14:09:11.383Z,929.52
2017-01-28T14:10:25.099Z,929.53
2017-01-28T14:11:38.825Z,929.45
2017-01-28T14:12:53.221Z,929.45
2017-01-28T14:14:07.654Z,929.46
2017-01-28T14:15:22.046Z,929.49
2017-01-28T14:16:36.591Z,929.45
2017-01-28T14:17:50.977Z,929.44
2017-01-28T14:19:05.394Z,929.4
2017-01-28T14:20:19.120Z,929.39
2017-01-28T14:21:32.863Z,929.36
2017-01-28T14:22:47.238Z,929.36
2017-01-28T14:24:01.615Z,929.34
2017-01-28T14:25:15.339Z,929.34
2017-01-28T14:26:29.726Z,929.29
2017-01-28T14:27:44.140Z,929.32
2017-01-28T14:28:57.952Z,929.36
2017-01-28T14:30:12.402Z,929.37
2017-01-28T14:31:26.175Z,929.32
2017-01-28T14:32:40.580Z,929.36
2017-01-28T14:33:54.982Z,929.29
2017-01-28T14:35:09.361Z,929.34
2017-01-28T14:36:23.083Z,929.3
2017-01-28T14:37:37.521Z,929.32
2017-01-28T14:38:51.901Z,929.31
2017-01-28T14:40:06.287Z,929.33
2017-01-28T14:41:20.669Z,929.19
2017-01-28T14:42:35.109Z,929.27
2017-01-28T14:43:49.517Z,929.3
2017-01-28T14:45:03.969Z,929.31
2017-01-28T14:46:18.541Z,929.31
2017-01-28T14:47:32.271Z,929.26
2017-01-28T14:48:46.676Z,929.29
2017-01-28T14:50:01.073Z,929.3
2017-01-28T14:51:15.419Z,929.3
2017-01-28T14:52:29.789Z,929.29
2017-01-28T14:53:44.204Z,929.25
2017-01-28T14:54:57.998Z,929.23
2017-01-28T14:56:12.400Z,929.27
2017-01-28T14:57:26.140Z,929.27
2017-01-28T14:58:40.554Z,929.21
2017-01-28T14:59:55.176Z,929.2
2017-01-28T15:01:09.786Z,929.21
2017-01-28T15:02:24.170Z,929.17
2017-01-28T15:03:37.941Z,929.16
2017-01-28T15:04:52.349Z,929.14
2017-01-28T15:06:06.732Z,929.11
2017-01-28T15:07:20.473Z,929.14
2017-01-28T15:08:34.177Z,929.09
2017-01-28T15:09:48.538Z,929.06
2017-01-28T15:11:02.944Z,929.12
2017-01-28T15:12:16.680Z,928.99
2017-01-28T15:13:30.434Z,929.08
2017-01-28T15:14:44.837Z,929.06
2017-01-28T15:15:59.194Z,929.11
2017-01-28T15:17:13.585Z,929.12
2017-01-28T15:18:27.342Z,929.15
2017-01-28T15:19:41.730Z,929.15
2017-01-28T15:20:56.248Z,929.15
2017-01-28T15:22:10.014Z,929.17
2017-01-28T15:23:24.383Z,929.15
2017-01-28T15:24:38.156Z,929.09
2017-01-28T15:25:52.567Z,929.1
2017-01-28T15:27:06.329Z,929.09
2017-01-28T15:28:20.070Z,929.08
2017-01-28T15:29:34.522Z,929.13